createdAt,value
2017-11-20T00:01:43.108Z,63.05
2017-11-20T00:04:11.963Z,55.78
2017-11-20T00:06:40.042Z,72.37
2017-11-20T00:09:08.226Z,66.00
2017-11-20T00:11:36.293Z,56.95
2017-11-20T00:14:04.355Z,65.20
2017-11-20T00:16:32.497Z,65.93
2017-11-20T00:19:00.603Z,72.68
2017-11-20T00:21:28.694Z,64.05
2017-11-20T00:23:56.798Z,69.50
2017-11-20T00:26:24.871Z,65.28
2017-11-20T00:28:52.932Z,59.53
2017-11-20T00:31:22.035Z,63.72
2017-11-20T00:33:50.893Z,61.30
2017-11-20T00:36:18.954Z,64.20
2017-11-20T00:38:47.069Z,61.15
2017-11-20T00:41:15.887Z,63.05
2017-11-20T00:43:44.773Z,58.10
2017-11-20T00:46:12.833Z,62.60
2017-11-20T00:48:40.860Z,55.90
2017-11-20T00:51:08.905Z,61.15
2017-11-20T00:53:36.936Z,59.85
2017-11-20T00:56:05.740Z,63.40
2017-11-20T00:58:33.770Z,63.75
2017-11-20T01:01:01.782Z,63.55
2017-11-20T01:03:29.794Z,57.85
2017-11-20T01:05:57.831Z,62.60
2017-11-20T01:08:25.818Z,66.87
2017-11-20T01:10:53.836Z,58.72
2017-11-20T01:13:21.841Z,55.97
2017-11-20T01:15:49.866Z,68.12
2017-11-20T01:18:21.896Z,60.35
2017-11-20T01:20:49.891Z,61.45
2017-11-20T01:23:18.265Z,62.25
2017-11-20T01:25:46.303Z,57.28
2017-11-20T01:28:14.322Z,65.17
2017-11-20T01:30:42.334Z,65.40
2017-11-20T01:33:10.347Z,63.55
2017-11-20T01:35:38.396Z,60.00
2017-11-20T01:38:06.399Z,63.92
2017-11-20T01:40:34.440Z,56.15
2017-11-20T01:43:02.447Z,60.72
2017-11-20T01:45:30.467Z,59.78
2017-11-20T01:47:58.534Z,57.38
2017-11-20T01:50:26.569Z,60.50
2017-11-20T01:52:55.357Z,56.20
2017-11-20T01:55:24.134Z,58.47
2017-11-20T01:57:52.205Z,60.72
2017-11-20T02:00:20.255Z,56.03
2017-11-20T02:03:00.411Z,63.03
2017-11-20T02:05:28.453Z,58.22
2017-11-20T02:07:56.526Z,57.55
2017-11-20T02:10:24.582Z,56.70
2017-11-20T02:12:52.633Z,59.97
2017-11-20T02:15:21.436Z,63.22
2017-11-20T02:17:49.493Z,60.50
2017-11-20T02:20:18.363Z,51.55
2017-11-20T02:22:46.462Z,58.78
2017-11-20T02:25:15.264Z,61.00
2017-11-20T02:27:43.350Z,60.72
2017-11-20T02:30:11.397Z,58.65
2017-11-20T02:32:40.285Z,65.15
2017-11-20T02:35:09.146Z,60.93
2017-11-20T02:37:37.252Z,50.58
2017-11-20T02:40:06.132Z,56.70
2017-11-20T02:42:35.022Z,56.00
2017-11-20T02:45:03.902Z,54.08
2017-11-20T02:47:32.747Z,55.47
2017-11-20T02:50:00.794Z,53.83
2017-11-20T02:52:28.867Z,53.63
2017-11-20T02:54:56.894Z,50.42
2017-11-20T02:57:25.005Z,54.00
2017-11-20T02:59:53.100Z,54.20
2017-11-20T03:02:21.138Z,50.55
2017-11-20T03:04:49.942Z,54.45
2017-11-20T03:07:17.961Z,46.37
2017-11-20T03:09:46.030Z,51.22
2017-11-20T03:12:14.126Z,49.80
2017-11-20T03:14:42.159Z,48.58
2017-11-20T03:17:10.203Z,44.45
2017-11-20T03:19:38.248Z,45.30
2017-11-20T03:22:07.083Z,46.65
2017-11-20T03:24:35.161Z,48.83
2017-11-20T03:27:03.195Z,49.85
2017-11-20T03:29:31.230Z,51.00
2017-11-20T03:31:59.305Z,52.85
2017-11-20T03:34:27.410Z,54.00
2017-11-20T03:36:55.441Z,47.67
2017-11-20T03:39:23.495Z,50.40
2017-11-20T03:41:51.551Z,45.90
2017-11-20T03:44:19.645Z,51.95
2017-11-20T03:46:47.655Z,42.85
2017-11-20T03:49:16.468Z,45.53
2017-11-20T03:51:44.483Z,44.08
2017-11-20T03:54:12.599Z,54.00
2017-11-20T03:56:40.638Z,45.03
2017-11-20T03:59:08.637Z,47.13
2017-11-20T04:01:37.388Z,55.60
2017-11-20T04:04:05.397Z,51.20
2017-11-20T04:06:33.412Z,45.28
2017-11-20T04:09:01.437Z,37.77
2017-11-20T04:11:30.234Z,39.90
2017-11-20T04:13:58.271Z,38.80
2017-11-20T04:16:26.287Z,44.42
2017-11-20T04:18:54.302Z,39.08
2017-11-20T04:21:22.323Z,40.35
2017-11-20T04:23:50.298Z,37.38
2017-11-20T04:26:18.306Z,47.70
2017-11-20T04:28:46.366Z,46.05
2017-11-20T04:31:14.480Z,51.45
2017-11-20T04:33:43.275Z,42.58
2017-11-20T04:36:12.169Z,49.25
2017-11-20T04:38:40.953Z,46.25
2017-11-20T04:41:10.506Z,40.08
2017-11-20T04:43:38.526Z,39.60
2017-11-20T04:46:07.364Z,45.50
2017-11-20T04:48:35.442Z,39.28
2017-11-20T04:51:03.614Z,40.85
2017-11-20T04:53:31.676Z,39.33
2017-11-20T04:55:59.684Z,38.38
2017-11-20T04:58:27.693Z,39.20
2017-11-20T05:00:55.700Z,39.55
2017-11-20T05:03:23.762Z,39.15
2017-11-20T05:05:51.844Z,35.50
2017-11-20T05:08:19.867Z,38.28
2017-11-20T05:10:48.635Z,38.03
2017-11-20T05:13:16.646Z,45.83
2017-11-20T05:15:44.674Z,40.60
2017-11-20T05:18:12.684Z,35.75
2017-11-20T05:20:40.717Z,33.47
2017-11-20T05:23:08.766Z,39.47
2017-11-20T05:25:36.759Z,37.88
2017-11-20T05:28:04.777Z,35.92
2017-11-20T05:30:32.771Z,43.45
2017-11-20T05:33:00.781Z,37.55
2017-11-20T05:35:29.555Z,33.15
2017-11-20T05:37:57.647Z,33.25
2017-11-20T05:40:27.314Z,32.55
2017-11-20T05:42:55.312Z,40.80
2017-11-20T05:45:24.989Z,32.08
2017-11-20T05:47:52.971Z,34.22
2017-11-20T05:50:20.974Z,33.17
2017-11-20T05:52:50.133Z,34.58
2017-11-20T05:55:18.163Z,40.70
2017-11-20T05:57:46.169Z,32.80
2017-11-20T06:00:15.042Z,61.88
2017-11-20T06:02:44.066Z,135.00
2017-11-20T06:05:13.052Z,279.33
2017-11-20T06:07:41.878Z,175.48
2017-11-20T06:10:10.769Z,119.18
2017-11-20T06:12:39.529Z,65.45
2017-11-20T06:15:07.527Z,34.65
2017-11-20T06:17:36.157Z,32.60
2017-11-20T06:20:04.195Z,35.40
2017-11-20T06:22:32.213Z,32.88
2017-11-20T06:25:00.225Z,36.47
2017-11-20T06:27:29.163Z,34.10
2017-11-20T06:29:57.298Z,38.75
2017-11-20T06:32:26.074Z,34.25
2017-11-20T06:34:54.892Z,32.75
2017-11-20T06:37:22.902Z,34.92
2017-11-20T06:39:50.961Z,37.03
2017-11-20T06:42:18.995Z,36.58
2017-11-20T06:44:47.013Z,43.45
2017-11-20T06:47:15.623Z,39.22
2017-11-20T06:49:43.702Z,36.85
2017-11-20T06:52:12.483Z,35.75
2017-11-20T06:54:40.494Z,33.83
2017-11-20T06:57:09.349Z,36.40
2017-11-20T06:59:38.342Z,32.03
2017-11-20T07:02:07.145Z,31.08
2017-11-20T07:04:35.787Z,37.05
2017-11-20T07:07:03.778Z,30.00
2017-11-20T07:09:31.793Z,27.55
2017-11-20T07:11:59.783Z,27.48
2017-11-20T07:14:27.778Z,36.20
2017-11-20T07:16:55.769Z,31.77
2017-11-20T07:19:24.555Z,33.83
2017-11-20T07:21:53.395Z,34.58
2017-11-20T07:24:21.419Z,30.20
2017-11-20T07:27:04.884Z,30.12
2017-11-20T07:29:44.538Z,31.73
2017-11-20T07:32:12.570Z,30.62
2017-11-20T07:34:52.996Z,35.90
2017-11-20T07:37:32.728Z,31.92
2017-11-20T07:40:12.486Z,35.38
2017-11-20T07:42:40.511Z,32.63
2017-11-20T07:45:08.523Z,33.83
2017-11-20T07:47:36.560Z,31.42
2017-11-20T07:50:04.606Z,35.17
2017-11-20T07:52:32.627Z,30.05
2017-11-20T07:55:00.668Z,31.92
2017-11-20T07:57:28.674Z,31.75
2017-11-20T07:59:56.671Z,36.58
2017-11-20T08:02:24.703Z,27.42
2017-11-20T08:04:52.714Z,26.05
2017-11-20T08:07:20.738Z,26.80
2017-11-20T08:09:48.785Z,20.13
2017-11-20T08:12:16.792Z,24.03
2017-11-20T08:14:44.799Z,24.30
2017-11-20T08:17:12.839Z,21.40
2017-11-20T08:19:40.871Z,27.43
2017-11-20T08:22:08.890Z,20.37
2017-11-20T08:24:36.897Z,24.07
2017-11-20T08:27:05.702Z,25.20
2017-11-20T08:29:33.700Z,21.57
2017-11-20T08:32:01.718Z,24.10
2017-11-20T08:34:30.519Z,18.13
2017-11-20T08:36:58.540Z,19.70
2017-11-20T08:39:26.574Z,18.67
2017-11-20T08:41:54.610Z,18.60
2017-11-20T08:44:22.642Z,16.50
2017-11-20T08:46:50.695Z,20.20
2017-11-20T08:49:18.729Z,16.30
2017-11-20T08:51:47.531Z,22.10
2017-11-20T08:54:16.373Z,20.60
2017-11-20T08:56:44.390Z,17.47
2017-11-20T08:59:13.186Z,17.97
2017-11-20T09:01:41.205Z,16.77
2017-11-20T09:04:09.304Z,15.13
2017-11-20T09:06:38.142Z,14.27
2017-11-20T09:09:06.161Z,15.40
2017-11-20T09:11:34.186Z,12.23
2017-11-20T09:14:02.257Z,15.47
2017-11-20T09:16:30.480Z,12.53
2017-11-20T09:18:58.598Z,14.23
2017-11-20T09:21:26.642Z,15.93
2017-11-20T09:23:55.446Z,20.60
2017-11-20T09:26:23.481Z,15.90
2017-11-20T09:28:51.496Z,22.63
2017-11-20T09:31:19.491Z,23.13
2017-11-20T09:33:47.561Z,22.70
2017-11-20T09:36:15.586Z,27.40
2017-11-20T09:38:44.362Z,29.30
2017-11-20T09:41:13.173Z,32.83
2017-11-20T09:43:41.223Z,28.87
2017-11-20T09:46:10.071Z,30.10
2017-11-20T09:48:38.131Z,39.93
2017-11-20T09:51:06.253Z,47.83
2017-11-20T09:53:34.338Z,49.43
2017-11-20T09:56:03.202Z,55.33
2017-11-20T09:58:31.304Z,46.83
2017-11-20T10:01:00.174Z,40.50
2017-11-20T10:03:28.285Z,38.87
2017-11-20T10:05:56.405Z,33.60
2017-11-20T10:08:24.508Z,34.20
2017-11-20T10:10:53.363Z,36.13
2017-11-20T10:13:21.430Z,39.27
2017-11-20T10:15:49.553Z,39.10
2017-11-20T10:18:18.391Z,38.33
2017-11-20T10:20:46.511Z,42.13
2017-11-20T10:23:15.363Z,43.27
2017-11-20T10:25:43.466Z,39.60
2017-11-20T10:28:12.319Z,38.10
2017-11-20T10:30:40.420Z,39.73
2017-11-20T10:33:09.255Z,37.60
2017-11-20T10:35:37.349Z,40.90
2017-11-20T10:38:05.451Z,38.57
2017-11-20T10:40:33.706Z,39.30
2017-11-20T10:43:01.829Z,45.87
2017-11-20T10:45:29.942Z,38.57
2017-11-20T10:47:58.043Z,35.10
2017-11-20T10:50:26.555Z,42.50
2017-11-20T10:52:54.654Z,33.93
2017-11-20T10:55:22.710Z,35.53
2017-11-20T10:57:50.862Z,29.70
2017-11-20T11:00:19.706Z,33.83
2017-11-20T11:02:47.813Z,28.33
2017-11-20T11:05:16.664Z,32.80
2017-11-20T11:07:44.762Z,24.90
2017-11-20T11:10:12.824Z,29.33
2017-11-20T11:12:40.938Z,27.67
2017-11-20T11:15:09.056Z,30.93
2017-11-20T11:17:41.121Z,28.30
2017-11-20T11:20:09.207Z,30.30
2017-11-20T11:22:37.311Z,29.73
2017-11-20T11:25:06.174Z,28.93
2017-11-20T11:27:34.256Z,27.10
2017-11-20T11:30:02.342Z,27.47
2017-11-20T11:32:31.211Z,29.33
2017-11-20T11:34:59.267Z,37.10
2017-11-20T11:37:27.323Z,39.80
2017-11-20T11:39:55.396Z,37.10
2017-11-20T11:42:23.503Z,34.23
2017-11-20T11:44:51.585Z,34.13
2017-11-20T11:47:20.458Z,33.97
2017-11-20T11:49:48.546Z,35.00
2017-11-20T11:52:17.418Z,34.00
2017-11-20T11:54:45.530Z,33.83
2017-11-20T11:57:13.650Z,31.10
2017-11-20T11:59:41.750Z,35.60
2017-11-20T12:02:09.855Z,39.57
2017-11-20T12:04:37.948Z,33.40
2017-11-20T12:07:06.010Z,40.23
2017-11-20T12:09:34.090Z,31.80
2017-11-20T12:12:02.202Z,31.43
2017-11-20T12:14:30.282Z,34.83
2017-11-20T12:16:58.363Z,39.17
2017-11-20T12:19:27.239Z,42.87
2017-11-20T12:21:59.177Z,44.90
2017-11-20T12:24:27.286Z,43.50
2017-11-20T12:26:56.169Z,44.73
2017-11-20T12:29:24.231Z,40.10
2017-11-20T12:31:52.328Z,40.37
2017-11-20T12:34:21.202Z,41.50
2017-11-20T12:36:49.410Z,41.73
2017-11-20T12:39:17.507Z,35.20
2017-11-20T12:41:45.570Z,42.33
2017-11-20T12:44:13.656Z,37.30
2017-11-20T12:46:41.719Z,41.50
2017-11-20T12:49:09.802Z,37.33
2017-11-20T12:51:37.891Z,41.43
2017-11-20T12:54:05.938Z,41.03
2017-11-20T12:56:34.035Z,36.70
2017-11-20T12:59:02.063Z,36.30
2017-11-20T13:01:30.142Z,39.80
2017-11-20T13:03:58.218Z,39.63
2017-11-20T13:06:26.322Z,36.17
2017-11-20T13:08:54.407Z,38.20
2017-11-20T13:11:22.502Z,35.93
2017-11-20T13:13:51.393Z,38.10
2017-11-20T13:16:20.270Z,37.10
2017-11-20T13:18:48.369Z,35.43
2017-11-20T13:21:16.454Z,39.77
2017-11-20T13:23:44.566Z,34.93
2017-11-20T13:26:12.683Z,33.97
2017-11-20T13:28:40.770Z,40.20
2017-11-20T13:31:08.869Z,49.73
2017-11-20T13:33:36.959Z,42.93
2017-11-20T13:36:05.038Z,41.10
2017-11-20T13:38:33.179Z,42.57
2017-11-20T13:41:01.266Z,57.73
2017-11-20T13:43:29.435Z,56.07
2017-11-20T13:45:57.554Z,73.60
2017-11-20T13:48:26.432Z,72.50
2017-11-20T13:50:55.292Z,63.00
2017-11-20T13:53:23.399Z,68.77
2017-11-20T13:55:52.251Z,66.10
2017-11-20T13:58:20.362Z,64.53
2017-11-20T14:00:49.262Z,66.40
2017-11-20T14:03:18.146Z,77.33
2017-11-20T14:05:47.030Z,81.43
2017-11-20T14:08:15.882Z,67.73
2017-11-20T14:10:43.992Z,79.40
2017-11-20T14:13:12.078Z,79.90
2017-11-20T14:15:40.939Z,76.97
2017-11-20T14:18:09.126Z,75.50
2017-11-20T14:20:37.989Z,78.67
2017-11-20T14:23:06.109Z,71.33
2017-11-20T14:25:34.966Z,71.17
2017-11-20T14:28:03.067Z,76.93
2017-11-20T14:30:31.906Z,80.20
2017-11-20T14:32:59.998Z,78.10
2017-11-20T14:35:28.098Z,79.00
2017-11-20T14:37:56.984Z,70.30
2017-11-20T14:40:25.870Z,88.50
2017-11-20T14:42:53.963Z,81.90
2017-11-20T14:45:22.050Z,81.10
2017-11-20T14:50:46.193Z,84.03
2017-11-20T14:53:24.870Z,82.13
2017-11-20T14:55:52.936Z,87.33
2017-11-20T14:58:20.992Z,91.83
2017-11-20T15:00:49.901Z,89.27
2017-11-20T15:03:18.015Z,91.37
2017-11-20T15:05:46.189Z,91.00
2017-11-20T15:08:14.354Z,101.20
2017-11-20T15:10:42.531Z,98.53
2017-11-20T15:13:10.647Z,99.63
2017-11-20T15:15:39.506Z,101.63
2017-11-20T15:18:07.631Z,154.03
2017-11-20T15:20:36.302Z,112.67
2017-11-20T15:23:04.418Z,111.77
2017-11-20T15:25:32.547Z,117.87
2017-11-20T15:28:01.398Z,131.67
2017-11-20T15:30:29.498Z,125.83
2017-11-20T15:32:58.400Z,119.43
2017-11-20T15:35:27.284Z,122.23
2017-11-20T15:37:56.124Z,127.50
2017-11-20T15:40:24.591Z,112.10
2017-11-20T15:42:52.671Z,130.40
2017-11-20T15:45:20.744Z,131.17
2017-11-20T15:47:48.770Z,130.90
2017-11-20T15:50:17.545Z,142.47
2017-11-20T15:52:46.333Z,130.20
2017-11-20T15:55:14.354Z,124.00
2017-11-20T15:57:42.413Z,129.90
2017-11-20T16:00:10.538Z,127.13
2017-11-20T16:02:38.546Z,142.70
2017-11-20T16:05:06.868Z,155.23
2017-11-20T16:07:34.932Z,149.53
2017-11-20T16:10:03.514Z,145.50
2017-11-20T16:12:31.527Z,150.20
2017-11-20T16:15:00.334Z,169.47
2017-11-20T16:17:28.668Z,161.23
2017-11-20T16:19:56.717Z,149.03
2017-11-20T16:22:24.769Z,169.77
2017-11-20T16:24:52.871Z,162.83
2017-11-20T16:27:20.879Z,188.30
2017-11-20T16:29:48.895Z,166.50
2017-11-20T16:32:16.903Z,172.27
2017-11-20T16:34:44.923Z,148.77
2017-11-20T16:37:12.993Z,150.00
2017-11-20T16:39:41.059Z,163.27
2017-11-20T16:42:09.125Z,149.83
2017-11-20T16:44:37.138Z,161.30
2017-11-20T16:47:05.212Z,159.90
2017-11-20T16:49:33.270Z,144.47
2017-11-20T16:52:01.322Z,150.60
2017-11-20T16:54:29.402Z,161.83
2017-11-20T16:57:10.373Z,142.87
2017-11-20T16:59:39.077Z,146.53
2017-11-20T17:02:33.591Z,141.27
2017-11-20T17:05:01.874Z,147.77
2017-11-20T17:07:30.696Z,163.17
2017-11-20T17:09:58.852Z,139.97
2017-11-20T17:12:27.838Z,143.23
2017-11-20T17:14:56.766Z,150.30
2017-11-20T17:17:24.768Z,142.23
2017-11-20T17:19:52.810Z,191.00
2017-11-20T17:22:20.838Z,152.00
2017-11-20T17:24:48.891Z,155.63
2017-11-20T17:27:16.946Z,137.10
2017-11-20T17:29:44.954Z,126.47
2017-11-20T17:32:13.102Z,133.77
2017-11-20T17:34:41.964Z,134.60
2017-11-20T17:37:09.966Z,135.23
2017-11-20T17:39:37.989Z,137.67
2017-11-20T17:42:06.031Z,130.80
2017-11-20T17:44:34.070Z,140.70
2017-11-20T17:47:03.037Z,144.60
2017-11-20T17:49:31.798Z,101.60
2017-11-20T17:52:00.597Z,116.80
2017-11-20T17:54:30.442Z,108.80
2017-11-20T17:56:58.494Z,98.80
2017-11-20T17:59:28.233Z,77.83
2017-11-20T18:01:56.501Z,70.20
2017-11-20T18:04:24.570Z,63.57
2017-11-20T18:06:52.572Z,59.43
2017-11-20T18:09:20.591Z,56.33
2017-11-20T18:11:48.649Z,52.70
2017-11-20T18:14:17.495Z,58.93
2017-11-20T18:16:45.630Z,53.00
2017-11-20T18:19:13.698Z,45.17
2017-11-20T18:21:41.792Z,48.33
2017-11-20T18:24:09.843Z,45.83
2017-11-20T18:26:37.862Z,60.63
2017-11-20T18:29:06.013Z,49.00
2017-11-20T18:31:34.047Z,47.43
2017-11-20T18:34:02.092Z,49.70
2017-11-20T18:36:30.223Z,50.30
2017-11-20T18:38:58.316Z,42.40
2017-11-20T18:41:26.430Z,39.30
2017-11-20T18:43:55.311Z,45.67
2017-11-20T18:46:24.162Z,40.83
2017-11-20T18:48:52.242Z,37.23
2017-11-20T18:51:20.289Z,38.07
2017-11-20T18:53:48.362Z,37.73
2017-11-20T18:56:16.489Z,40.50
2017-11-20T18:58:45.450Z,40.17
2017-11-20T19:01:25.470Z,37.73
2017-11-20T19:07:10.634Z,40.77
2017-11-20T19:09:39.512Z,39.13
2017-11-20T19:12:08.338Z,41.90
2017-11-20T19:14:36.431Z,44.53
2017-11-20T19:17:04.446Z,36.37
2017-11-20T19:19:33.260Z,39.40
2017-11-20T19:22:01.356Z,39.70
2017-11-20T19:24:29.465Z,35.00
2017-11-20T19:26:57.549Z,40.03
2017-11-20T19:29:26.439Z,31.10
2017-11-20T19:31:55.222Z,34.60
2017-11-20T19:34:23.264Z,33.87
2017-11-20T19:36:51.349Z,35.63
2017-11-20T19:39:19.414Z,46.63
2017-11-20T19:41:47.444Z,36.13
2017-11-20T19:44:15.477Z,35.43
2017-11-20T19:46:43.501Z,35.37
2017-11-20T19:49:11.537Z,33.87
2017-11-20T19:51:40.335Z,29.47
2017-11-20T19:54:08.498Z,28.47
2017-11-20T19:56:36.548Z,27.95
2017-11-20T19:59:04.599Z,35.50
2017-11-20T20:01:32.618Z,36.80
2017-11-20T20:04:01.455Z,32.40
2017-11-20T20:06:29.486Z,31.33
2017-11-20T20:08:57.484Z,30.33
2017-11-20T20:11:25.539Z,31.33
2017-11-20T20:13:53.700Z,33.37
2017-11-20T20:16:28.962Z,32.33
2017-11-20T20:18:57.014Z,32.47
2017-11-20T20:21:25.056Z,27.52
2017-11-20T20:23:53.870Z,29.63
2017-11-20T20:26:21.943Z,34.67
2017-11-20T20:28:49.970Z,29.77
2017-11-20T20:31:17.999Z,27.90
2017-11-20T20:33:45.993Z,27.93
2017-11-20T20:36:14.026Z,28.37
2017-11-20T20:38:42.062Z,22.33
2017-11-20T20:41:10.110Z,23.50
2017-11-20T20:43:38.137Z,23.53
2017-11-20T20:46:06.225Z,31.27
2017-11-20T20:48:34.283Z,24.65
2017-11-20T20:51:02.297Z,25.27
2017-11-20T20:53:30.304Z,21.25
2017-11-20T20:55:59.138Z,18.80
2017-11-20T20:58:27.143Z,21.90
2017-11-20T21:00:55.233Z,22.48
2017-11-20T21:03:23.286Z,19.95
2017-11-20T21:05:51.326Z,22.37
2017-11-20T21:08:19.340Z,18.75
2017-11-20T21:10:53.587Z,17.87
2017-11-20T21:13:21.589Z,19.73
2017-11-20T21:15:49.611Z,19.62
2017-11-20T21:18:18.455Z,18.77
2017-11-20T21:20:46.487Z,19.43
2017-11-20T21:23:14.498Z,18.50
2017-11-20T21:25:42.543Z,16.37
2017-11-20T21:28:10.563Z,16.30
2017-11-20T21:30:38.596Z,19.30
2017-11-20T21:33:06.645Z,23.40
2017-11-20T21:35:34.666Z,20.52
2017-11-20T21:38:02.685Z,19.52
2017-11-20T21:40:30.739Z,17.70
2017-11-20T21:42:59.536Z,21.12
2017-11-20T21:45:27.572Z,14.50
2017-11-20T21:47:55.589Z,15.93
2017-11-20T21:50:23.646Z,16.77
2017-11-20T21:52:51.682Z,14.38
2017-11-20T21:55:19.711Z,21.00
2017-11-20T21:57:47.778Z,16.37
2017-11-20T22:00:15.889Z,18.50
2017-11-20T22:02:43.962Z,15.23
2017-11-20T22:05:12.066Z,16.92
2017-11-20T22:07:40.898Z,18.40
2017-11-20T22:10:08.944Z,19.12
2017-11-20T22:15:40.915Z,14.13
2017-11-20T22:18:09.482Z,24.98
2017-11-20T22:20:37.794Z,15.30
2017-11-20T22:23:06.884Z,17.00
2017-11-20T22:25:34.953Z,13.80
2017-11-20T22:28:03.009Z,13.30
2017-11-20T22:30:31.846Z,11.38
2017-11-20T22:32:59.905Z,13.90
2017-11-20T22:35:27.926Z,19.48
2017-11-20T22:37:55.982Z,15.30
2017-11-20T22:40:24.012Z,13.68
2017-11-20T22:42:52.075Z,11.25
2017-11-20T22:45:20.119Z,11.43
2017-11-20T22:47:48.950Z,11.45
2017-11-20T22:50:16.957Z,13.93
2017-11-20T22:52:45.011Z,14.13
2017-11-20T22:55:13.019Z,10.60
2017-11-20T22:57:41.857Z,11.35
2017-11-20T23:00:09.889Z,11.05
2017-11-20T23:02:38.677Z,17.67
2017-11-20T23:05:07.346Z,15.63
2017-11-20T23:07:35.291Z,16.50
2017-11-20T23:10:03.228Z,14.27
2017-11-20T23:12:31.254Z,15.30
2017-11-20T23:14:59.226Z,20.23
2017-11-20T23:17:27.185Z,16.70
2017-11-20T23:19:55.053Z,15.05
2017-11-20T23:22:23.028Z,15.57
2017-11-20T23:24:50.897Z,16.62
2017-11-20T23:27:18.803Z,17.90
2017-11-20T23:29:46.738Z,14.57
2017-11-20T23:32:14.585Z,16.05
2017-11-20T23:34:42.422Z,15.63
2017-11-20T23:37:10.281Z,13.25
2017-11-20T23:39:38.120Z,14.70
2017-11-20T23:42:06.763Z,15.43
2017-11-20T23:44:34.597Z,14.02
2017-11-20T23:47:02.487Z,12.63
2017-11-20T23:49:30.382Z,15.68
2017-11-20T23:51:58.289Z,17.15
2017-11-20T23:54:37.897Z,13.20
2017-11-20T23:57:05.774Z,15.10
2017-11-20T23:59:34.468Z,12.85
